sensor_id;sensor_type;location;lat;lon;timestamp;temperature;humidity
43665;DHT22;29263;48.172;11.484;2023-07-13T00:02:21;18.80;99.90
43665;DHT22;29263;48.172;11.484;2023-07-13T00:04:47;18.90;99.90
43665;DHT22;29263;48.172;11.484;2023-07-13T00:07:13;18.90;99.90
43665;DHT22;29263;48.172;11.484;2023-07-13T00:09:40;18.80;99.90
43665;DHT22;29263;48.172;11.484;2023-07-13T00:14:49;18.80;99.90
43665;DHT22;29263;48.172;11.484;2023-07-13T00:17:15;18.80;99.90
43665;DHT22;29263;48.172;11.484;2023-07-13T00:19:41;18.80;99.90
43665;DHT22;29263;48.172;11.484;2023-07-13T00:22:06;18.80;99.90
43665;DHT22;29263;48.172;11.484;2023-07-13T00:24:32;18.80;99.90
43665;DHT22;29263;48.172;11.484;2023-07-13T00:26:58;18.80;99.90
43665;DHT22;29263;48.172;11.484;2023-07-13T00:29:25;18.80;99.90
43665;DHT22;29263;48.172;11.484;2023-07-13T00:31:51;18.80;99.90
43665;DHT22;29263;48.172;11.484;2023-07-13T00:34:16;18.80;99.90
43665;DHT22;29263;48.172;11.484;2023-07-13T00:36:42;18.80;99.90
43665;DHT22;29263;48.172;11.484;2023-07-13T00:39:08;18.80;99.90
43665;DHT22;29263;48.172;11.484;2023-07-13T00:41:34;18.80;99.90
43665;DHT22;29263;48.172;11.484;2023-07-13T00:44:01;18.80;99.90
43665;DHT22;29263;48.172;11.484;2023-07-13T00:46:32;18.70;99.90
43665;DHT22;29263;48.172;11.484;2023-07-13T00:49:04;18.70;99.90
43665;DHT22;29263;48.172;11.484;2023-07-13T00:54:23;18.70;99.90
43665;DHT22;29263;48.172;11.484;2023-07-13T00:56:51;18.70;99.90
43665;DHT22;29263;48.172;11.484;2023-07-13T00:59:20;18.70;99.90
43665;DHT22;29263;48.172;11.484;2023-07-13T01:01:47;18.70;99.90
43665;DHT22;29263;48.172;11.484;2023-07-13T01:04:13;18.60;99.90
43665;DHT22;29263;48.172;11.484;2023-07-13T01:06:40;18.70;99.90
43665;DHT22;29263;48.172;11.484;2023-07-13T01:09:07;18.70;99.90
43665;DHT22;29263;48.172;11.484;2023-07-13T01:11:33;18.60;99.90
43665;DHT22;29263;48.172;11.484;2023-07-13T01:14:00;18.60;99.90
43665;DHT22;29263;48.172;11.484;2023-07-13T01:16:32;18.60;99.90
43665;DHT22;29263;48.172;11.484;2023-07-13T01:18:58;18.60;99.90
43665;DHT22;29263;48.172;11.484;2023-07-13T01:21:26;18.60;99.90
43665;DHT22;29263;48.172;11.484;2023-07-13T01:23:52;18.60;99.90
43665;DHT22;29263;48.172;11.484;2023-07-13T01:26:18;18.60;99.90
43665;DHT22;29263;48.172;11.484;2023-07-13T01:28:43;18.50;99.90
43665;DHT22;29263;48.172;11.484;2023-07-13T01:31:10;18.50;99.90
43665;DHT22;29263;48.172;11.484;2023-07-13T01:33:38;18.50;99.90
43665;DHT22;29263;48.172;11.484;2023-07-13T01:36:05;18.60;99.90
43665;DHT22;29263;48.172;11.484;2023-07-13T01:38:31;18.60;99.90
43665;DHT22;29263;48.172;11.484;2023-07-13T01:40:57;18.60;99.90
43665;DHT22;29263;48.172;11.484;2023-07-13T01:43:22;18.60;99.90
43665;DHT22;29263;48.172;11.484;2023-07-13T01:45:48;18.60;99.90
43665;DHT22;29263;48.172;11.484;2023-07-13T01:48:14;18.60;99.90
43665;DHT22;29263;48.172;11.484;2023-07-13T01:50:39;18.70;99.90
43665;DHT22;29263;48.172;11.484;2023-07-13T01:53:05;18.60;99.90
43665;DHT22;29263;48.172;11.484;2023-07-13T01:55:31;18.60;99.90
43665;DHT22;29263;48.172;11.484;2023-07-13T01:57:57;18.50;99.90
43665;DHT22;29263;48.172;11.484;2023-07-13T02:00:23;18.50;99.90
43665;DHT22;29263;48.172;11.484;2023-07-13T02:02:50;18.50;99.90
43665;DHT22;29263;48.172;11.484;2023-07-13T02:05:16;18.40;99.90
43665;DHT22;29263;48.172;11.484;2023-07-13T02:07:42;18.40;99.90
43665;DHT22;29263;48.172;11.484;2023-07-13T02:10:09;18.40;99.90
43665;DHT22;29263;48.172;11.484;2023-07-13T02:12:35;18.40;99.90
43665;DHT22;29263;48.172;11.484;2023-07-13T02:15:01;18.40;99.90
43665;DHT22;29263;48.172;11.484;2023-07-13T02:17:27;18.40;99.90
43665;DHT22;29263;48.172;11.484;2023-07-13T02:19:53;18.50;99.90
43665;DHT22;29263;48.172;11.484;2023-07-13T02:22:19;18.50;99.90
43665;DHT22;29263;48.172;11.484;2023-07-13T02:24:44;18.50;99.90
43665;DHT22;29263;48.172;11.484;2023-07-13T02:27:10;18.50;99.90
43665;DHT22;29263;48.172;11.484;2023-07-13T02:29:36;18.50;99.90
43665;DHT22;29263;48.172;11.484;2023-07-13T02:32:01;18.50;99.90
43665;DHT22;29263;48.172;11.484;2023-07-13T02:34:27;18.50;99.90
43665;DHT22;29263;48.172;11.484;2023-07-13T02:36:52;18.50;99.90
43665;DHT22;29263;48.172;11.484;2023-07-13T02:39:18;18.50;99.90
43665;DHT22;29263;48.172;11.484;2023-07-13T02:41:43;18.50;99.90
43665;DHT22;29263;48.172;11.484;2023-07-13T02:44:09;18.50;99.90
43665;DHT22;29263;48.172;11.484;2023-07-13T02:46:36;18.60;99.90
43665;DHT22;29263;48.172;11.484;2023-07-13T02:49:03;18.50;99.90
43665;DHT22;29263;48.172;11.484;2023-07-13T02:51:29;18.50;99.90
43665;DHT22;29263;48.172;11.484;2023-07-13T02:53:55;18.50;99.90
43665;DHT22;29263;48.172;11.484;2023-07-13T02:56:25;18.50;99.90
43665;DHT22;29263;48.172;11.484;2023-07-13T02:58:51;18.50;99.90
43665;DHT22;29263;48.172;11.484;2023-07-13T03:01:17;18.40;99.90
43665;DHT22;29263;48.172;11.484;2023-07-13T03:03:45;18.40;99.90
43665;DHT22;29263;48.172;11.484;2023-07-13T03:06:12;18.30;99.90
43665;DHT22;29263;48.172;11.484;2023-07-13T03:08:38;18.20;99.90
43665;DHT22;29263;48.172;11.484;2023-07-13T03:11:07;18.20;99.90
43665;DHT22;29263;48.172;11.484;2023-07-13T03:13:33;18.20;99.90
43665;DHT22;29263;48.172;11.484;2023-07-13T03:15:59;18.20;99.90
43665;DHT22;29263;48.172;11.484;2023-07-13T03:18:27;18.20;99.90
43665;DHT22;29263;48.172;11.484;2023-07-13T03:20:53;18.20;99.90
43665;DHT22;29263;48.172;11.484;2023-07-13T03:23:20;18.10;99.90
43665;DHT22;29263;48.172;11.484;2023-07-13T03:25:46;18.10;99.90
43665;DHT22;29263;48.172;11.484;2023-07-13T03:28:12;18.00;99.90
43665;DHT22;29263;48.172;11.484;2023-07-13T03:30:38;18.00;99.90
43665;DHT22;29263;48.172;11.484;2023-07-13T03:33:04;17.90;99.90
43665;DHT22;29263;48.172;11.484;2023-07-13T03:35:29;17.90;99.90
43665;DHT22;29263;48.172;11.484;2023-07-13T03:37:55;17.80;99.90
43665;DHT22;29263;48.172;11.484;2023-07-13T03:40:20;17.80;99.90
43665;DHT22;29263;48.172;11.484;2023-07-13T03:42:46;17.70;99.90
43665;DHT22;29263;48.172;11.484;2023-07-13T03:45:12;17.70;99.90
43665;DHT22;29263;48.172;11.484;2023-07-13T03:47:37;17.70;99.90
43665;DHT22;29263;48.172;11.484;2023-07-13T03:50:03;17.70;99.90
43665;DHT22;29263;48.172;11.484;2023-07-13T03:52:29;17.70;99.90
43665;DHT22;29263;48.172;11.484;2023-07-13T03:54:55;17.70;99.90
43665;DHT22;29263;48.172;11.484;2023-07-13T03:57:20;17.60;99.90
43665;DHT22;29263;48.172;11.484;2023-07-13T03:59:46;17.50;99.90
43665;DHT22;29263;48.172;11.484;2023-07-13T04:02:12;17.40;99.90
43665;DHT22;29263;48.172;11.484;2023-07-13T04:04:37;17.40;99.90
43665;DHT22;29263;48.172;11.484;2023-07-13T04:07:06;17.40;99.90
43665;DHT22;29263;48.172;11.484;2023-07-13T04:09:33;17.40;99.90
43665;DHT22;29263;48.172;11.484;2023-07-13T04:11:59;17.50;99.90
43665;DHT22;29263;48.172;11.484;2023-07-13T04:14:25;17.40;99.90
43665;DHT22;29263;48.172;11.484;2023-07-13T04:16:50;17.40;99.90
43665;DHT22;29263;48.172;11.484;2023-07-13T04:19:16;17.40;99.90
43665;DHT22;29263;48.172;11.484;2023-07-13T04:21:42;17.30;99.90
43665;DHT22;29263;48.172;11.484;2023-07-13T04:24:08;17.30;99.90
43665;DHT22;29263;48.172;11.484;2023-07-13T04:26:34;17.30;99.90
43665;DHT22;29263;48.172;11.484;2023-07-13T04:29:01;17.40;99.90
43665;DHT22;29263;48.172;11.484;2023-07-13T04:31:29;17.30;99.90
43665;DHT22;29263;48.172;11.484;2023-07-13T04:33:55;17.30;99.90
43665;DHT22;29263;48.172;11.484;2023-07-13T04:36:21;17.30;99.90
43665;DHT22;29263;48.172;11.484;2023-07-13T04:38:46;17.40;99.90
43665;DHT22;29263;48.172;11.484;2023-07-13T04:41:13;17.30;99.90
43665;DHT22;29263;48.172;11.484;2023-07-13T04:43:40;17.30;99.90
43665;DHT22;29263;48.172;11.484;2023-07-13T04:46:07;17.30;99.90
43665;DHT22;29263;48.172;11.484;2023-07-13T04:51:40;17.20;99.90
43665;DHT22;29263;48.172;11.484;2023-07-13T04:54:05;17.20;99.90
43665;DHT22;29263;48.172;11.484;2023-07-13T04:56:33;17.30;99.90
43665;DHT22;29263;48.172;11.484;2023-07-13T04:58:59;17.30;99.90
43665;DHT22;29263;48.172;11.484;2023-07-13T05:01:27;17.40;99.90
43665;DHT22;29263;48.172;11.484;2023-07-13T05:03:53;17.40;99.90
43665;DHT22;29263;48.172;11.484;2023-07-13T05:06:20;17.40;99.90
43665;DHT22;29263;48.172;11.484;2023-07-13T05:08:46;17.40;99.90
43665;DHT22;29263;48.172;11.484;2023-07-13T05:11:12;17.40;99.90
43665;DHT22;29263;48.172;11.484;2023-07-13T05:13:37;17.40;99.90
43665;DHT22;29263;48.172;11.484;2023-07-13T05:16:04;17.40;99.90
43665;DHT22;29263;48.172;11.484;2023-07-13T05:18:31;17.50;99.90
43665;DHT22;29263;48.172;11.484;2023-07-13T05:21:03;17.50;99.90
43665;DHT22;29263;48.172;11.484;2023-07-13T05:23:29;17.50;99.90
43665;DHT22;29263;48.172;11.484;2023-07-13T05:25:55;17.60;99.90
43665;DHT22;29263;48.172;11.484;2023-07-13T05:28:21;17.60;99.90
43665;DHT22;29263;48.172;11.484;2023-07-13T05:30:48;17.60;99.90
43665;DHT22;29263;48.172;11.484;2023-07-13T05:33:14;17.60;99.90
43665;DHT22;29263;48.172;11.484;2023-07-13T05:35:40;17.60;99.90
43665;DHT22;29263;48.172;11.484;2023-07-13T05:38:05;17.60;99.90
43665;DHT22;29263;48.172;11.484;2023-07-13T05:40:31;17.60;99.90
43665;DHT22;29263;48.172;11.484;2023-07-13T05:42:57;17.60;99.90
43665;DHT22;29263;48.172;11.484;2023-07-13T05:45:23;17.60;99.90
43665;DHT22;29263;48.172;11.484;2023-07-13T05:47:48;17.60;99.90
43665;DHT22;29263;48.172;11.484;2023-07-13T05:50:14;17.70;99.90
43665;DHT22;29263;48.172;11.484;2023-07-13T05:52:40;17.70;99.90
43665;DHT22;29263;48.172;11.484;2023-07-13T05:55:05;17.80;99.90
43665;DHT22;29263;48.172;11.484;2023-07-13T05:57:31;17.90;99.90
43665;DHT22;29263;48.172;11.484;2023-07-13T05:59:57;18.00;99.90
43665;DHT22;29263;48.172;11.484;2023-07-13T06:02:23;18.00;99.90
43665;DHT22;29263;48.172;11.484;2023-07-13T06:04:48;18.00;99.90
43665;DHT22;29263;48.172;11.484;2023-07-13T06:07:14;18.00;99.90
43665;DHT22;29263;48.172;11.484;2023-07-13T06:09:40;18.00;99.90
43665;DHT22;29263;48.172;11.484;2023-07-13T06:12:06;18.00;99.90
43665;DHT22;29263;48.172;11.484;2023-07-13T06:14:32;18.10;99.90
43665;DHT22;29263;48.172;11.484;2023-07-13T06:16:57;18.20;99.90
43665;DHT22;29263;48.172;11.484;2023-07-13T06:19:23;18.30;99.90
43665;DHT22;29263;48.172;11.484;2023-07-13T06:21:49;18.50;99.90
43665;DHT22;29263;48.172;11.484;2023-07-13T06:24:14;18.70;99.90
43665;DHT22;29263;48.172;11.484;2023-07-13T06:26:40;18.80;99.90
43665;DHT22;29263;48.172;11.484;2023-07-13T06:29:06;18.90;99.90
43665;DHT22;29263;48.172;11.484;2023-07-13T06:31:31;19.10;99.90
43665;DHT22;29263;48.172;11.484;2023-07-13T06:33:57;19.10;99.90
43665;DHT22;29263;48.172;11.484;2023-07-13T06:36:23;19.20;99.90
43665;DHT22;29263;48.172;11.484;2023-07-13T06:38:48;19.30;99.90
43665;DHT22;29263;48.172;11.484;2023-07-13T06:41:14;19.20;99.90
43665;DHT22;29263;48.172;11.484;2023-07-13T06:43:40;19.10;99.90
43665;DHT22;29263;48.172;11.484;2023-07-13T06:46:05;19.00;99.90
43665;DHT22;29263;48.172;11.484;2023-07-13T06:48:31;19.00;99.90
43665;DHT22;29263;48.172;11.484;2023-07-13T06:50:56;18.90;99.90
43665;DHT22;29263;48.172;11.484;2023-07-13T06:53:22;18.80;99.90
43665;DHT22;29263;48.172;11.484;2023-07-13T06:55:48;18.70;99.90
43665;DHT22;29263;48.172;11.484;2023-07-13T06:58:15;18.70;99.90
43665;DHT22;29263;48.172;11.484;2023-07-13T07:00:41;18.70;99.90
43665;DHT22;29263;48.172;11.484;2023-07-13T07:03:07;18.70;99.90
43665;DHT22;29263;48.172;11.484;2023-07-13T07:05:32;18.70;99.90
43665;DHT22;29263;48.172;11.484;2023-07-13T07:07:58;18.70;99.90
43665;DHT22;29263;48.172;11.484;2023-07-13T07:10:24;18.70;99.90
43665;DHT22;29263;48.172;11.484;2023-07-13T07:12:50;18.60;99.90
43665;DHT22;29263;48.172;11.484;2023-07-13T07:15:16;18.50;99.90
43665;DHT22;29263;48.172;11.484;2023-07-13T07:17:42;18.50;99.90
43665;DHT22;29263;48.172;11.484;2023-07-13T07:20:09;18.40;99.90
43665;DHT22;29263;48.172;11.484;2023-07-13T07:22:35;18.40;99.90
43665;DHT22;29263;48.172;11.484;2023-07-13T07:25:01;18.30;99.90
43665;DHT22;29263;48.172;11.484;2023-07-13T07:27:26;18.40;99.90
43665;DHT22;29263;48.172;11.484;2023-07-13T07:29:52;18.40;99.90
43665;DHT22;29263;48.172;11.484;2023-07-13T07:32:19;18.60;99.90
43665;DHT22;29263;48.172;11.484;2023-07-13T07:34:45;18.60;99.90
43665;DHT22;29263;48.172;11.484;2023-07-13T07:37:13;18.60;99.90
43665;DHT22;29263;48.172;11.484;2023-07-13T07:39:39;18.70;99.90
43665;DHT22;29263;48.172;11.484;2023-07-13T07:42:04;18.70;99.90
43665;DHT22;29263;48.172;11.484;2023-07-13T07:44:31;18.70;99.90
43665;DHT22;29263;48.172;11.484;2023-07-13T07:46:57;18.80;99.90
43665;DHT22;29263;48.172;11.484;2023-07-13T07:49:23;18.80;99.90
43665;DHT22;29263;48.172;11.484;2023-07-13T07:51:48;18.80;99.90
43665;DHT22;29263;48.172;11.484;2023-07-13T07:54:14;18.70;99.90
43665;DHT22;29263;48.172;11.484;2023-07-13T07:56:40;18.60;99.90
43665;DHT22;29263;48.172;11.484;2023-07-13T07:59:06;18.50;99.90
43665;DHT22;29263;48.172;11.484;2023-07-13T08:01:31;18.50;99.90
43665;DHT22;29263;48.172;11.484;2023-07-13T08:03:57;18.40;99.90
43665;DHT22;29263;48.172;11.484;2023-07-13T08:06:23;18.30;99.90
43665;DHT22;29263;48.172;11.484;2023-07-13T08:08:49;18.30;99.90
43665;DHT22;29263;48.172;11.484;2023-07-13T08:11:15;18.30;99.90
43665;DHT22;29263;48.172;11.484;2023-07-13T08:13:41;18.30;99.90
43665;DHT22;29263;48.172;11.484;2023-07-13T08:16:07;18.30;99.90
43665;DHT22;29263;48.172;11.484;2023-07-13T08:18:32;18.20;99.90
43665;DHT22;29263;48.172;11.484;2023-07-13T08:20:58;18.20;99.90
43665;DHT22;29263;48.172;11.484;2023-07-13T08:23:24;18.20;99.90
43665;DHT22;29263;48.172;11.484;2023-07-13T08:25:54;18.20;99.90
43665;DHT22;29263;48.172;11.484;2023-07-13T08:28:23;18.00;99.90
43665;DHT22;29263;48.172;11.484;2023-07-13T08:30:49;17.90;99.90
43665;DHT22;29263;48.172;11.484;2023-07-13T08:33:22;17.90;99.90
43665;DHT22;29263;48.172;11.484;2023-07-13T08:35:51;17.90;99.90
43665;DHT22;29263;48.172;11.484;2023-07-13T08:38:17;17.90;99.90
43665;DHT22;29263;48.172;11.484;2023-07-13T08:40:44;18.00;99.90
43665;DHT22;29263;48.172;11.484;2023-07-13T08:43:16;18.10;99.90
43665;DHT22;29263;48.172;11.484;2023-07-13T08:45:56;18.30;99.90
43665;DHT22;29263;48.172;11.484;2023-07-13T08:48:28;18.40;99.90
43665;DHT22;29263;48.172;11.484;2023-07-13T08:51:04;18.60;99.90
43665;DHT22;29263;48.172;11.484;2023-07-13T08:53:46;18.70;99.90
43665;DHT22;29263;48.172;11.484;2023-07-13T08:56:24;18.70;99.90
43665;DHT22;29263;48.172;11.484;2023-07-13T08:59:02;18.70;99.90
43665;DHT22;29263;48.172;11.484;2023-07-13T09:04:09;18.50;99.90
43665;DHT22;29263;48.172;11.484;2023-07-13T09:12:24;18.30;99.90
43665;DHT22;29263;48.172;11.484;2023-07-13T09:14:55;18.40;99.90
43665;DHT22;29263;48.172;11.484;2023-07-13T09:17:33;18.40;99.90
43665;DHT22;29263;48.172;11.484;2023-07-13T09:20:31;18.40;99.90
43665;DHT22;29263;48.172;11.484;2023-07-13T09:22:56;18.50;99.90
43665;DHT22;29263;48.172;11.484;2023-07-13T09:25:32;18.60;99.90
43665;DHT22;29263;48.172;11.484;2023-07-13T09:28:12;18.60;99.90
43665;DHT22;29263;48.172;11.484;2023-07-13T09:33:24;18.80;99.90
43665;DHT22;29263;48.172;11.484;2023-07-13T09:35:55;18.80;99.90
43665;DHT22;29263;48.172;11.484;2023-07-13T09:38:22;18.80;99.90
43665;DHT22;29263;48.172;11.484;2023-07-13T09:46:27;18.90;99.80
43665;DHT22;29263;48.172;11.484;2023-07-13T09:48:52;18.90;99.90
43665;DHT22;29263;48.172;11.484;2023-07-13T09:51:18;19.00;99.90
43665;DHT22;29263;48.172;11.484;2023-07-13T09:53:44;19.20;98.30
43665;DHT22;29263;48.172;11.484;2023-07-13T09:56:23;19.20;98.20
43665;DHT22;29263;48.172;11.484;2023-07-13T09:58:49;19.40;97.70
43665;DHT22;29263;48.172;11.484;2023-07-13T10:01:15;19.50;98.80
43665;DHT22;29263;48.172;11.484;2023-07-13T10:03:54;19.50;99.50
43665;DHT22;29263;48.172;11.484;2023-07-13T10:06:21;19.60;99.90
43665;DHT22;29263;48.172;11.484;2023-07-13T10:08:51;19.50;96.80
43665;DHT22;29263;48.172;11.484;2023-07-13T10:11:37;19.50;95.70
43665;DHT22;29263;48.172;11.484;2023-07-13T10:14:21;19.50;98.10
43665;DHT22;29263;48.172;11.484;2023-07-13T10:16:57;19.50;99.10
43665;DHT22;29263;48.172;11.484;2023-07-13T10:19:29;19.60;97.90
43665;DHT22;29263;48.172;11.484;2023-07-13T10:22:05;19.70;96.40
43665;DHT22;29263;48.172;11.484;2023-07-13T10:24:38;19.90;98.70
43665;DHT22;29263;48.172;11.484;2023-07-13T10:27:13;20.10;96.00
43665;DHT22;29263;48.172;11.484;2023-07-13T10:29:46;20.30;94.80
43665;DHT22;29263;48.172;11.484;2023-07-13T10:32:12;20.50;94.40
43665;DHT22;29263;48.172;11.484;2023-07-13T10:34:39;20.70;94.50
43665;DHT22;29263;48.172;11.484;2023-07-13T10:37:07;20.90;93.80
43665;DHT22;29263;48.172;11.484;2023-07-13T10:39:39;21.00;93.10
43665;DHT22;29263;48.172;11.484;2023-07-13T10:42:08;20.90;91.80
43665;DHT22;29263;48.172;11.484;2023-07-13T10:44:37;20.90;91.40
43665;DHT22;29263;48.172;11.484;2023-07-13T10:47:10;20.90;93.80
43665;DHT22;29263;48.172;11.484;2023-07-13T10:49:39;20.90;92.80
43665;DHT22;29263;48.172;11.484;2023-07-13T10:52:06;20.90;90.50
43665;DHT22;29263;48.172;11.484;2023-07-13T10:54:34;20.90;89.60
43665;DHT22;29263;48.172;11.484;2023-07-13T10:57:16;21.00;86.50
43665;DHT22;29263;48.172;11.484;2023-07-13T11:02:28;21.00;90.10
43665;DHT22;29263;48.172;11.484;2023-07-13T11:04:55;21.30;90.60
43665;DHT22;29263;48.172;11.484;2023-07-13T11:07:28;21.30;86.30
43665;DHT22;29263;48.172;11.484;2023-07-13T11:10:04;21.40;86.10
43665;DHT22;29263;48.172;11.484;2023-07-13T11:12:51;21.40;86.30
43665;DHT22;29263;48.172;11.484;2023-07-13T11:15:31;21.50;87.40
43665;DHT22;29263;48.172;11.484;2023-07-13T11:17:57;21.40;87.20
43665;DHT22;29263;48.172;11.484;2023-07-13T11:20:41;21.40;85.10
43665;DHT22;29263;48.172;11.484;2023-07-13T11:25:39;21.50;87.60
43665;DHT22;29263;48.172;11.484;2023-07-13T11:30:38;21.60;84.10
43665;DHT22;29263;48.172;11.484;2023-07-13T11:41:12;22.00;82.30
43665;DHT22;29263;48.172;11.484;2023-07-13T11:43:39;22.10;86.40
43665;DHT22;29263;48.172;11.484;2023-07-13T11:46:20;22.40;85.80
43665;DHT22;29263;48.172;11.484;2023-07-13T11:48:47;22.70;79.40
43665;DHT22;29263;48.172;11.484;2023-07-13T11:51:23;22.80;81.00
43665;DHT22;29263;48.172;11.484;2023-07-13T11:53:53;23.10;78.40
43665;DHT22;29263;48.172;11.484;2023-07-13T11:56:19;23.10;75.10
43665;DHT22;29263;48.172;11.484;2023-07-13T11:58:49;23.10;75.40
43665;DHT22;29263;48.172;11.484;2023-07-13T12:01:21;22.90;75.00
43665;DHT22;29263;48.172;11.484;2023-07-13T12:03:48;22.70;76.60
43665;DHT22;29263;48.172;11.484;2023-07-13T12:06:47;22.60;77.70
43665;DHT22;29263;48.172;11.484;2023-07-13T12:09:19;22.80;80.50
43665;DHT22;29263;48.172;11.484;2023-07-13T12:11:50;22.90;81.90
43665;DHT22;29263;48.172;11.484;2023-07-13T12:14:18;22.80;78.40
43665;DHT22;29263;48.172;11.484;2023-07-13T12:16:45;22.70;77.80
43665;DHT22;29263;48.172;11.484;2023-07-13T12:19:29;22.70;77.70
43665;DHT22;29263;48.172;11.484;2023-07-13T12:21:59;22.60;78.00
43665;DHT22;29263;48.172;11.484;2023-07-13T12:24:25;22.50;77.30
43665;DHT22;29263;48.172;11.484;2023-07-13T12:27:02;22.50;79.80
43665;DHT22;29263;48.172;11.484;2023-07-13T12:29:33;22.50;87.00
43665;DHT22;29263;48.172;11.484;2023-07-13T12:31:59;22.50;84.00
43665;DHT22;29263;48.172;11.484;2023-07-13T12:34:26;22.50;83.80
43665;DHT22;29263;48.172;11.484;2023-07-13T12:36:52;22.40;82.00
43665;DHT22;29263;48.172;11.484;2023-07-13T12:39:21;22.50;75.80
43665;DHT22;29263;48.172;11.484;2023-07-13T12:41:50;22.50;74.90
43665;DHT22;29263;48.172;11.484;2023-07-13T12:44:28;22.50;74.30
43665;DHT22;29263;48.172;11.484;2023-07-13T12:47:03;22.50;78.80
43665;DHT22;29263;48.172;11.484;2023-07-13T12:49:32;22.50;75.90
43665;DHT22;29263;48.172;11.484;2023-07-13T12:52:01;22.60;76.10
43665;DHT22;29263;48.172;11.484;2023-07-13T12:54:28;22.80;75.60
43665;DHT22;29263;48.172;11.484;2023-07-13T12:56:55;23.10;70.00
43665;DHT22;29263;48.172;11.484;2023-07-13T12:59:24;23.20;67.50
43665;DHT22;29263;48.172;11.484;2023-07-13T13:01:51;23.00;69.10
43665;DHT22;29263;48.172;11.484;2023-07-13T13:04:19;23.00;68.40
43665;DHT22;29263;48.172;11.484;2023-07-13T13:06:47;23.20;71.30
43665;DHT22;29263;48.172;11.484;2023-07-13T13:09:16;23.40;66.70
43665;DHT22;29263;48.172;11.484;2023-07-13T13:11:44;23.50;73.00
43665;DHT22;29263;48.172;11.484;2023-07-13T13:14:09;23.50;68.90
43665;DHT22;29263;48.172;11.484;2023-07-13T13:16:43;23.60;71.40
43665;DHT22;29263;48.172;11.484;2023-07-13T13:19:16;23.70;69.00
43665;DHT22;29263;48.172;11.484;2023-07-13T13:21:43;23.80;68.70
43665;DHT22;29263;48.172;11.484;2023-07-13T13:24:17;23.70;67.50
43665;DHT22;29263;48.172;11.484;2023-07-13T13:26:44;23.40;67.10
43665;DHT22;29263;48.172;11.484;2023-07-13T13:29:18;23.20;69.60
43665;DHT22;29263;48.172;11.484;2023-07-13T13:31:45;23.10;66.90
43665;DHT22;29263;48.172;11.484;2023-07-13T13:34:13;23.10;69.00
43665;DHT22;29263;48.172;11.484;2023-07-13T13:36:40;23.20;69.80
43665;DHT22;29263;48.172;11.484;2023-07-13T13:39:26;23.20;68.70
43665;DHT22;29263;48.172;11.484;2023-07-13T13:41:53;23.30;69.70
43665;DHT22;29263;48.172;11.484;2023-07-13T13:44:20;23.20;68.50
43665;DHT22;29263;48.172;11.484;2023-07-13T13:46:49;23.10;70.10
43665;DHT22;29263;48.172;11.484;2023-07-13T13:49:26;23.10;69.40
43665;DHT22;29263;48.172;11.484;2023-07-13T13:51:53;23.00;70.00
43665;DHT22;29263;48.172;11.484;2023-07-13T13:54:20;23.00;69.30
43665;DHT22;29263;48.172;11.484;2023-07-13T13:56:48;23.10;70.70
43665;DHT22;29263;48.172;11.484;2023-07-13T13:59:15;23.20;69.10
43665;DHT22;29263;48.172;11.484;2023-07-13T14:01:43;23.30;69.40
43665;DHT22;29263;48.172;11.484;2023-07-13T14:04:15;23.20;69.30
43665;DHT22;29263;48.172;11.484;2023-07-13T14:06:41;23.40;68.50
43665;DHT22;29263;48.172;11.484;2023-07-13T14:09:15;23.50;65.90
43665;DHT22;29263;48.172;11.484;2023-07-13T14:11:42;23.50;67.80
43665;DHT22;29263;48.172;11.484;2023-07-13T14:14:14;23.60;67.80
43665;DHT22;29263;48.172;11.484;2023-07-13T14:16:41;23.60;71.00
43665;DHT22;29263;48.172;11.484;2023-07-13T14:19:11;23.70;72.50
43665;DHT22;29263;48.172;11.484;2023-07-13T14:21:37;23.90;68.80
43665;DHT22;29263;48.172;11.484;2023-07-13T14:24:03;24.00;67.50
43665;DHT22;29263;48.172;11.484;2023-07-13T14:26:32;24.10;69.00
43665;DHT22;29263;48.172;11.484;2023-07-13T14:29:00;24.10;65.90
43665;DHT22;29263;48.172;11.484;2023-07-13T14:31:27;23.90;70.70
43665;DHT22;29263;48.172;11.484;2023-07-13T14:33:55;23.90;66.90
43665;DHT22;29263;48.172;11.484;2023-07-13T14:38:59;23.90;66.20
43665;DHT22;29263;48.172;11.484;2023-07-13T14:41:26;23.90;66.70
43665;DHT22;29263;48.172;11.484;2023-07-13T14:43:52;23.90;68.20
43665;DHT22;29263;48.172;11.484;2023-07-13T14:46:28;23.90;68.50
43665;DHT22;29263;48.172;11.484;2023-07-13T14:49:07;23.90;69.30
43665;DHT22;29263;48.172;11.484;2023-07-13T14:51:35;24.00;68.40
43665;DHT22;29263;48.172;11.484;2023-07-13T14:54:06;24.00;66.30
43665;DHT22;29263;48.172;11.484;2023-07-13T14:56:34;24.10;66.00
43665;DHT22;29263;48.172;11.484;2023-07-13T14:58:59;24.00;64.60
43665;DHT22;29263;48.172;11.484;2023-07-13T15:01:25;24.10;65.30
43665;DHT22;29263;48.172;11.484;2023-07-13T15:03:52;24.20;65.70
43665;DHT22;29263;48.172;11.484;2023-07-13T15:06:18;24.20;64.60
43665;DHT22;29263;48.172;11.484;2023-07-13T15:08:45;24.30;66.00
43665;DHT22;29263;48.172;11.484;2023-07-13T15:11:11;24.40;67.30
43665;DHT22;29263;48.172;11.484;2023-07-13T15:13:38;24.40;63.60
43665;DHT22;29263;48.172;11.484;2023-07-13T15:16:05;24.40;63.90
43665;DHT22;29263;48.172;11.484;2023-07-13T15:18:35;24.50;65.90
43665;DHT22;29263;48.172;11.484;2023-07-13T15:21:03;24.40;64.20
43665;DHT22;29263;48.172;11.484;2023-07-13T15:23:29;24.30;64.20
43665;DHT22;29263;48.172;11.484;2023-07-13T15:25:55;24.30;64.20
43665;DHT22;29263;48.172;11.484;2023-07-13T15:28:20;24.20;65.00
43665;DHT22;29263;48.172;11.484;2023-07-13T15:30:48;24.20;66.80
43665;DHT22;29263;48.172;11.484;2023-07-13T15:33:28;24.10;66.40
43665;DHT22;29263;48.172;11.484;2023-07-13T15:35:55;24.10;66.70
43665;DHT22;29263;48.172;11.484;2023-07-13T15:38:29;24.10;66.90
43665;DHT22;29263;48.172;11.484;2023-07-13T15:40:56;24.10;64.50
43665;DHT22;29263;48.172;11.484;2023-07-13T15:43:22;24.10;65.20
43665;DHT22;29263;48.172;11.484;2023-07-13T15:45:49;24.10;64.70
43665;DHT22;29263;48.172;11.484;2023-07-13T15:48:19;24.20;66.40
43665;DHT22;29263;48.172;11.484;2023-07-13T15:50:48;24.30;67.70
43665;DHT22;29263;48.172;11.484;2023-07-13T15:53:19;24.30;63.50
43665;DHT22;29263;48.172;11.484;2023-07-13T15:55:45;24.40;64.20
43665;DHT22;29263;48.172;11.484;2023-07-13T15:58:12;24.90;62.50
43665;DHT22;29263;48.172;11.484;2023-07-13T16:00:40;25.20;63.00
43665;DHT22;29263;48.172;11.484;2023-07-13T16:03:07;25.60;62.10
43665;DHT22;29263;48.172;11.484;2023-07-13T16:05:33;25.80;60.20